createdAt,value
2023-05-22T00:01:37.914Z,7.65
2023-05-22T00:06:43.093Z,12.63
2023-05-22T00:11:46.161Z,9.23
2023-05-22T00:16:47.878Z,9.70
2023-05-22T00:21:49.616Z,11.20
2023-05-22T00:26:53.645Z,12.05
2023-05-22T00:31:55.343Z,11.35
2023-05-22T00:36:56.989Z,11.63
2023-05-22T00:42:00.624Z,11.57
2023-05-22T00:47:02.402Z,9.35
2023-05-22T00:52:04.706Z,9.07
2023-05-22T00:57:07.783Z,12.13
2023-05-22T01:02:09.783Z,11.07
2023-05-22T01:07:11.570Z,6.97
2023-05-22T01:12:20.733Z,9.50
2023-05-22T01:17:32.296Z,13.63
2023-05-22T01:22:56.963Z,8.90
2023-05-22T01:28:30.394Z,8.45
2023-05-22T01:33:41.254Z,11.55
2023-05-22T01:38:43.704Z,12.45
2023-05-22T01:43:46.379Z,12.20
2023-05-22T01:48:49.461Z,9.45
2023-05-22T01:53:55.293Z,8.82
2023-05-22T01:59:03.232Z,11.18
2023-05-22T02:04:06.969Z,9.32
2023-05-22T02:09:10.156Z,10.10
2023-05-22T02:14:11.908Z,8.57
2023-05-22T02:19:15.404Z,10.02
2023-05-22T02:24:18.315Z,13.00
2023-05-22T02:29:20.039Z,15.02
2023-05-22T02:34:23.103Z,11.55
2023-05-22T02:39:24.782Z,13.82
2023-05-22T02:44:26.489Z,10.65
2023-05-22T02:49:29.538Z,11.23
2023-05-22T02:54:31.211Z,8.98
2023-05-22T02:59:32.933Z,12.07
2023-05-22T03:04:36.011Z,9.38
2023-05-22T03:09:37.680Z,17.85
2023-05-22T03:14:39.429Z,10.77
2023-05-22T03:19:42.489Z,14.27
2023-05-22T03:24:44.133Z,11.93
2023-05-22T03:29:45.796Z,14.20
2023-05-22T03:34:48.870Z,14.70
2023-05-22T03:39:50.581Z,13.85
2023-05-22T03:44:52.279Z,18.75
2023-05-22T03:49:55.377Z,23.15
2023-05-22T03:54:57.085Z,13.15
2023-05-22T03:59:58.740Z,13.80
2023-05-22T04:05:01.769Z,14.95
2023-05-22T04:10:04.197Z,12.02
2023-05-22T04:15:07.178Z,18.63
2023-05-22T04:20:11.084Z,14.88
2023-05-22T04:25:13.068Z,11.38
2023-05-22T04:30:15.434Z,13.32
2023-05-22T04:35:18.714Z,14.82
2023-05-22T04:40:20.693Z,10.65
2023-05-22T04:45:22.380Z,11.18
2023-05-22T04:50:25.455Z,8.63
2023-05-22T04:55:28.848Z,18.83
2023-05-22T05:01:01.425Z,12.07
2023-05-22T05:06:14.396Z,9.63
2023-05-22T05:11:16.090Z,10.63
2023-05-22T05:16:17.849Z,9.18
2023-05-22T05:21:21.228Z,13.18
2023-05-22T05:26:22.955Z,16.00
2023-05-22T05:31:24.807Z,13.95
2023-05-22T05:36:28.096Z,14.60
2023-05-22T05:41:29.786Z,12.43
2023-05-22T05:46:31.691Z,21.35
2023-05-22T05:51:34.828Z,17.65
2023-05-22T05:56:36.759Z,19.58
2023-05-22T06:01:38.634Z,17.55
2023-05-22T06:06:42.007Z,14.25
2023-05-22T06:11:43.632Z,18.25
2023-05-22T06:16:45.344Z,16.35
2023-05-22T06:21:49.824Z,17.65
2023-05-22T06:26:53.229Z,19.55
2023-05-22T06:31:54.956Z,13.52
2023-05-22T06:36:58.097Z,16.02
2023-05-22T06:41:59.916Z,17.60
2023-05-22T06:47:01.667Z,15.27
2023-05-22T06:52:05.578Z,15.90
2023-05-22T06:57:07.276Z,15.23
2023-05-22T07:02:08.988Z,15.75
2023-05-22T07:07:12.004Z,27.20
2023-05-22T07:12:13.726Z,15.07
2023-05-22T07:17:15.386Z,15.73
2023-05-22T07:22:18.470Z,17.65
2023-05-22T07:27:20.290Z,15.48
2023-05-22T07:32:22.002Z,21.88
2023-05-22T07:37:25.189Z,23.80
2023-05-22T07:42:26.874Z,25.00
2023-05-22T07:47:28.690Z,21.88
2023-05-22T07:52:31.850Z,28.90
2023-05-22T07:57:33.602Z,25.77
2023-05-22T08:02:35.407Z,20.90
2023-05-22T08:07:38.534Z,22.42
2023-05-22T08:12:40.278Z,22.17
2023-05-22T08:17:42.010Z,17.92
2023-05-22T08:22:45.067Z,17.70
2023-05-22T08:27:46.740Z,19.75
2023-05-22T08:32:48.436Z,20.75
2023-05-22T08:37:51.566Z,20.50
2023-05-22T08:42:53.282Z,26.20
2023-05-22T08:47:57.196Z,21.00
2023-05-22T08:53:01.296Z,19.00
2023-05-22T08:58:04.600Z,22.27
2023-05-22T09:03:06.592Z,17.98
2023-05-22T09:08:19.590Z,16.67
2023-05-22T09:13:26.213Z,26.70
2023-05-22T09:18:28.678Z,17.08
2023-05-22T09:23:31.954Z,19.20
2023-05-22T09:28:35.122Z,15.82
2023-05-22T09:33:37.274Z,19.05
2023-05-22T09:38:40.479Z,22.50
2023-05-22T09:43:50.249Z,22.80
2023-05-22T09:48:52.133Z,15.90
2023-05-22T09:54:02.638Z,19.58
2023-05-22T09:59:07.263Z,18.02
2023-05-22T10:04:12.920Z,12.90
2023-05-22T10:09:19.239Z,19.20
2023-05-22T10:14:22.949Z,18.90
2023-05-22T10:19:25.401Z,21.55
2023-05-22T10:24:29.531Z,19.23
2023-05-22T10:29:36.594Z,16.77
2023-05-22T10:34:49.249Z,25.05
2023-05-22T10:40:02.112Z,16.25
2023-05-22T10:45:08.363Z,16.85
2023-05-22T10:50:11.746Z,16.40
2023-05-22T10:55:14.934Z,16.45
2023-05-22T11:00:24.177Z,15.07
2023-05-22T11:05:36.107Z,19.13
2023-05-22T11:10:55.633Z,16.92
2023-05-22T11:15:58.691Z,16.02
2023-05-22T11:21:00.406Z,14.38
2023-05-22T11:26:18.594Z,19.77
2023-05-22T11:31:20.819Z,14.68
2023-05-22T11:36:24.971Z,18.65
2023-05-22T11:41:33.866Z,17.23
2023-05-22T11:46:36.003Z,11.85
2023-05-22T11:51:38.654Z,18.35
2023-05-22T11:56:41.872Z,16.30
2023-05-22T12:01:43.585Z,17.98
2023-05-22T12:06:45.667Z,13.63
2023-05-22T12:11:49.296Z,15.82
2023-05-22T12:16:52.522Z,22.13
2023-05-22T12:21:54.697Z,13.30
2023-05-22T12:26:57.752Z,17.83
2023-05-22T12:32:02.664Z,13.77
2023-05-22T12:42:07.744Z,15.80
2023-05-22T12:47:09.438Z,15.23
2023-05-22T12:52:11.090Z,16.75
2023-05-22T12:57:14.256Z,12.77
2023-05-22T13:02:15.933Z,16.52
2023-05-22T13:07:20.602Z,19.92
2023-05-22T13:12:23.821Z,21.35
2023-05-22T13:17:25.620Z,15.05
2023-05-22T13:22:27.366Z,22.23
2023-05-22T13:27:32.742Z,17.65
2023-05-22T13:32:35.408Z,19.98
2023-05-22T13:37:37.308Z,16.77
2023-05-22T13:42:40.370Z,19.90
2023-05-22T13:47:42.105Z,18.58
2023-05-22T13:52:45.965Z,16.35
2023-05-22T13:57:49.016Z,18.13
2023-05-22T14:02:50.741Z,17.92
2023-05-22T14:07:52.463Z,19.65
2023-05-22T14:12:55.609Z,22.98
2023-05-22T14:17:57.335Z,17.60
2023-05-22T14:23:02.031Z,24.10
2023-05-22T14:28:05.133Z,17.95
2023-05-22T14:33:07.152Z,20.75
2023-05-22T14:38:11.928Z,20.77
2023-05-22T14:43:15.847Z,16.15
2023-05-22T14:48:17.573Z,19.65
2023-05-22T14:53:19.395Z,11.60
2023-05-22T14:58:22.455Z,13.57
2023-05-22T15:03:26.891Z,12.27
2023-05-22T15:08:28.587Z,12.47
2023-05-22T15:13:31.598Z,25.92
2023-05-22T15:18:33.323Z,14.93
2023-05-22T15:23:35.240Z,18.50
2023-05-22T15:28:38.277Z,12.75
2023-05-22T15:33:39.931Z,15.68
2023-05-22T15:38:41.625Z,12.88
2023-05-22T15:43:44.706Z,14.98
2023-05-22T15:48:46.509Z,23.92
2023-05-22T15:53:48.196Z,18.70
2023-05-22T15:58:51.281Z,20.33
2023-05-22T16:03:53.206Z,15.48
2023-05-22T16:08:54.992Z,17.83
2023-05-22T16:13:58.066Z,14.82
2023-05-22T16:18:59.814Z,19.08
2023-05-22T16:24:01.553Z,13.80
2023-05-22T16:29:07.069Z,14.10
2023-05-22T16:34:08.752Z,15.43
2023-05-22T16:39:10.464Z,20.05
2023-05-22T16:44:13.585Z,16.73
2023-05-22T16:49:15.301Z,15.55
2023-05-22T16:54:17.007Z,16.67
2023-05-22T16:59:20.242Z,20.15
2023-05-22T17:04:22.004Z,16.73
2023-05-22T17:09:26.579Z,21.27
2023-05-22T17:14:33.411Z,18.98
2023-05-22T17:19:35.328Z,19.88
2023-05-22T17:24:37.087Z,22.63
2023-05-22T17:29:40.248Z,22.75
2023-05-22T17:34:41.960Z,16.88
2023-05-22T17:39:43.674Z,22.30
2023-05-22T17:44:46.724Z,20.67
2023-05-22T17:49:48.404Z,17.38
2023-05-22T17:54:50.119Z,20.45
2023-05-22T17:59:53.220Z,19.23
2023-05-22T18:04:54.906Z,23.92
2023-05-22T18:09:56.707Z,19.63
2023-05-22T18:14:59.785Z,22.75
2023-05-22T18:20:01.503Z,24.70
2023-05-22T18:25:03.292Z,27.65
2023-05-22T18:30:10.423Z,26.10
2023-05-22T18:35:12.138Z,32.08
2023-05-22T18:40:13.907Z,31.23
2023-05-22T18:45:16.981Z,37.47
2023-05-22T18:50:18.909Z,32.08
2023-05-22T18:55:23.393Z,39.80
2023-05-22T19:00:26.466Z,39.10
2023-05-22T19:05:28.172Z,34.22
2023-05-22T19:10:29.863Z,40.90
2023-05-22T19:15:33.464Z,29.00
2023-05-22T19:20:38.373Z,40.47
2023-05-22T19:25:40.169Z,32.40
2023-05-22T19:30:43.555Z,46.22
2023-05-22T19:35:45.537Z,35.70
2023-05-22T19:40:47.210Z,42.10
2023-05-22T19:45:50.600Z,32.08
2023-05-22T19:50:52.284Z,41.17
2023-05-22T19:55:53.981Z,37.00
2023-05-22T20:00:57.084Z,52.47
2023-05-22T20:05:58.828Z,44.58
2023-05-22T20:11:00.472Z,46.33
2023-05-22T20:16:03.725Z,36.85
2023-05-22T20:21:05.484Z,37.78
2023-05-22T20:26:07.200Z,47.60
2023-05-22T20:31:10.260Z,47.10
2023-05-22T20:36:11.973Z,49.65
2023-05-22T20:41:13.676Z,46.83
2023-05-22T20:46:16.778Z,46.42
2023-05-22T20:51:18.487Z,49.42
2023-05-22T20:56:20.216Z,46.15
2023-05-22T21:01:24.038Z,40.08
2023-05-22T21:06:25.699Z,37.58
2023-05-22T21:11:27.932Z,40.15
2023-05-22T21:16:30.950Z,35.40
2023-05-22T21:21:32.640Z,36.80
2023-05-22T21:26:34.353Z,40.60
2023-05-22T21:31:37.686Z,40.92
2023-05-22T21:36:39.424Z,33.90
2023-05-22T21:41:41.281Z,32.15
2023-05-22T21:46:44.404Z,26.65
2023-05-22T21:51:46.074Z,32.50
2023-05-22T21:56:47.798Z,27.35
2023-05-22T22:01:50.858Z,27.48
2023-05-22T22:06:52.577Z,29.42
2023-05-22T22:11:54.276Z,22.85
2023-05-22T22:16:57.398Z,21.27
2023-05-22T22:21:59.126Z,22.90
2023-05-22T22:27:00.841Z,23.30
2023-05-22T22:32:04.179Z,24.60
2023-05-22T22:37:06.126Z,19.58
2023-05-22T22:42:08.008Z,17.02
2023-05-22T22:47:11.075Z,25.73
2023-05-22T22:52:12.748Z,25.10
2023-05-22T22:57:14.623Z,22.25
2023-05-22T23:02:17.736Z,23.25
2023-05-22T23:07:19.396Z,19.67
2023-05-22T23:12:21.075Z,22.00
2023-05-22T23:17:24.106Z,19.70
2023-05-22T23:22:25.774Z,17.98
2023-05-22T23:27:27.447Z,17.55
2023-05-22T23:32:30.534Z,20.63
2023-05-22T23:37:32.238Z,22.67
2023-05-22T23:42:33.960Z,22.50
2023-05-22T23:47:37.210Z,25.25
2023-05-22T23:52:39.051Z,25.77
2023-05-22T23:57:40.739Z,25.65
